Time;durP1;ratioP1;P1;durP2;ratioP2;P2;SDS_P1;SDS_P2;PMS_P1;PMS_P2;Temp;Humidity;BMP_temperature;BMP_pressure;BME280_temperature;BME280_humidity;BME280_pressure;Samples;Min_cycle;Max_cycle;Signal;HPM_P1;HPM_P2
2022/01/24 00:00:23;;;;;;;;;;;;;;;0.02;100.00;97399.63;1034843;28;19960;-70
2022/01/24 00:00:54;;;;;;;;;;;;;;;0.02;100.00;97395.25;1034791;28;20276;-71
2022/01/24 00:01:24;;;;;;;;;;;;;;;0.03;100.00;97396.88;1034746;28;19953;-71
2022/01/24 00:01:55;;;;;;;;;;;;;;;0.01;100.00;97398.00;1035225;28;19921;-71
2022/01/24 00:02:27;;;;;;;;;;;;;;;-0.01;100.00;97390.41;1034903;28;19964;-70
2022/01/24 00:02:57;;;;;;;;;;;;;;;-0.01;100.00;97395.56;1034603;28;19921;-70
2022/01/24 00:03:28;;;;;;;;;;;;;;;0.00;100.00;97392.06;1039239;28;19960;-70
2022/01/24 00:03:59;;;;;;;;;;;;;;;-0.01;100.00;97390.41;1031061;28;20270;-70
2022/01/24 00:04:29;;;;;;;;;;;;;;;0.01;100.00;97391.06;1034943;28;19968;-71
2022/01/24 00:04:59;;;;;;;;;;;;;;;0.03;100.00;97401.22;1033140;28;19932;-70
2022/01/24 00:05:30;;;;;;;;;;;;;;;0.03;100.00;97401.22;1030980;28;19929;-71
2022/01/24 00:06:00;;;;;;;;;;;;;;;0.02;100.00;97400.44;1026838;28;19956;-71
2022/01/24 00:06:32;;;;;;;;;;;;;;;0.05;100.00;97402.69;1026718;28;20448;-70
2022/01/24 00:07:03;;;;;;;;;;;;;;;0.05;100.00;97394.97;1022797;28;20348;-70
2022/01/24 00:07:33;;;;;;;;;;;;;;;0.06;100.00;97398.34;1023184;28;19929;-70
2022/01/24 00:08:03;;;;;;;;;;;;;;;0.06;100.00;97396.56;1023469;28;19918;-70
2022/01/24 00:08:34;;;;;;;;;;;;;;;0.07;100.00;97392.22;1035063;28;20406;-69
2022/01/24 00:09:04;;;;;;;;;;;;;;;0.06;100.00;97391.41;1038802;28;19952;-70
2022/01/24 00:09:36;;;;;;;;;;;;;;;0.06;100.00;97400.91;1034941;28;19922;-70
2022/01/24 00:10:11;;;;;;;;;;;;;;;0.07;100.00;97387.88;1034795;28;19921;-71
2022/01/24 00:10:45;;;;;;;;;;;;;;;0.08;100.00;97388.69;1031764;28;19968;-70
2022/01/24 00:11:19;;;;;;;;;;;;;;;0.08;100.00;97389.50;1034781;28;20401;-69
2022/01/24 00:13:31;;;;;;;;;;;;;;;0.11;100.00;97393.53;1032926;28;20460;-70
2022/01/24 00:16:33;;;;;;;;;;;;;;;0.12;100.00;97392.56;1043232;28;19976;-70
2022/01/24 00:17:47;;;;;;;;;;;;;;;0.12;100.00;97389.97;1043123;28;19963;-70
2022/01/24 00:26:39;;;;;;;;;;;;;;;0.13;100.00;97394.19;1043169;28;19915;-70
2022/01/24 00:27:10;;;;;;;;;;;;;;;0.08;100.00;97381.75;1041542;28;20420;-69
2022/01/24 00:27:40;;;;;;;;;;;;;;;0.07;100.00;97382.72;1042413;28;19920;-69
2022/01/24 00:28:10;;;;;;;;;;;;;;;0.07;100.00;97381.88;1043101;28;19967;-72
2022/01/24 00:28:40;;;;;;;;;;;;;;;0.07;100.00;97382.72;1038952;28;19928;-72
2022/01/24 00:29:11;;;;;;;;;;;;;;;0.06;100.00;97377.69;1039091;28;19971;-70
2022/01/24 00:29:41;;;;;;;;;;;;;;;0.05;100.00;97383.84;1038819;28;20065;-70
2022/01/24 00:30:11;;;;;;;;;;;;;;;0.06;100.00;97381.09;1039002;28;19905;-70
2022/01/24 00:30:42;;;;;;;;;;;;;;;0.06;100.00;97381.09;1043098;28;20607;-71
2022/01/24 00:31:12;;;;;;;;;;;;;;;0.05;100.00;97384.63;1038931;28;19909;-70
2022/01/24 00:31:42;;;;;;;;;;;;;;;0.05;100.00;97384.63;1034825;28;19909;-70
2022/01/24 00:32:13;;;;;;;;;;;;;;;0.05;100.00;97384.63;1026573;28;19915;-71
2022/01/24 00:32:43;;;;;;;;;;;;;;;0.06;100.00;97386.25;1026494;28;19915;-71
2022/01/24 00:33:14;;;;;;;;;;;;;;;0.04;100.00;97383.03;1030435;28;20432;-70
2022/01/24 00:33:44;;;;;;;;;;;;;;;0.06;100.00;97381.09;1028005;28;19910;-70
2022/01/24 00:34:15;;;;;;;;;;;;;;;0.03;100.00;97388.31;1038817;28;19955;-70
2022/01/24 00:34:45;;;;;;;;;;;;;;;0.04;100.00;97385.59;1038995;28;19909;-70
2022/01/24 00:35:15;;;;;;;;;;;;;;;0.03;100.00;97383.97;1035021;28;20751;-71
2022/01/24 00:35:50;;;;;;;;;;;;;;;0.02;100.00;97384.94;1030724;28;19917;-70
2022/01/24 00:36:20;;;;;;;;;;;;;;;0.01;100.00;97383.34;1027274;28;19914;-72
2022/01/24 00:36:51;;;;;;;;;;;;;;;0.02;100.00;97384.13;1026704;28;19929;-70
2022/01/24 00:37:22;;;;;;;;;;;;;;;0.05;100.00;97381.25;1026733;28;20427;-69
2022/01/24 00:37:52;;;;;;;;;;;;;;;0.06;100.00;97385.44;1033988;28;20012;-71
2022/01/24 00:38:22;;;;;;;;;;;;;;;0.05;100.00;97384.63;1034705;28;19921;-70
2022/01/24 00:38:54;;;;;;;;;;;;;;;0.05;100.00;97378.66;1038945;28;19913;-71
2022/01/24 00:39:24;;;;;;;;;;;;;;;0.05;100.00;97387.22;1042784;28;19924;-71
2022/01/24 00:39:55;;;;;;;;;;;;;;;0.05;100.00;97384.63;1043013;28;20413;-70
2022/01/24 00:40:26;;;;;;;;;;;;;;;0.04;100.00;97383.03;1042875;28;19917;-70
2022/01/24 00:40:56;;;;;;;;;;;;;;;0.04;100.00;97385.59;1039460;28;20633;-70
2022/01/24 00:41:27;;;;;;;;;;;;;;;0.06;100.00;97383.66;1043080;28;19924;-70
2022/01/24 00:42:13;;;;;;;;;;;;;;;0.05;100.00;97384.63;1034686;28;19917;-71
2022/01/24 00:42:59;;;;;;;;;;;;;;;0.04;100.00;97380.44;1031721;28;19945;-70
2022/01/24 00:43:45;;;;;;;;;;;;;;;0.02;100.00;97379.78;1035108;28;20292;-70
2022/01/24 00:44:42;;;;;;;;;;;;;;;0.03;100.00;97370.25;1042640;28;19917;-70
2022/01/24 00:45:19;;;;;;;;;;;;;;;-0.01;100.00;97374.94;1038808;28;19968;-71
2022/01/24 00:46:06;;;;;;;;;;;;;;;-0.01;100.00;97370.56;1038982;28;19917;-70
2022/01/24 00:46:46;;;;;;;;;;;;;;;-0.01;100.00;97374.94;1034554;28;19917;-70
2022/01/24 00:47:23;;;;;;;;;;;;;;;0.01;100.00;97372.22;1038785;28;20655;-70
2022/01/24 00:48:37;;;;;;;;;;;;;;;0.02;100.00;97374.63;1036548;28;19910;-70
2022/01/24 00:55:06;;;;;;;;;;;;;;;0.02;100.00;97374.63;1029400;28;19933;-70
2022/01/24 00:55:36;;;;;;;;;;;;;;;0.02;100.00;97372.03;1030485;28;20001;-70
2022/01/24 00:56:06;;;;;;;;;;;;;;;0.01;100.00;97370.44;1030558;28;19913;-70
2022/01/24 00:56:36;;;;;;;;;;;;;;;0.02;100.00;97372.03;1030205;28;19961;-69
2022/01/24 00:57:07;;;;;;;;;;;;;;;0.03;100.00;97368.50;1030478;28;19914;-70
2022/01/24 00:57:37;;;;;;;;;;;;;;;0.03;100.00;97373.66;1030393;28;20041;-70
2022/01/24 00:58:07;;;;;;;;;;;;;;;0.05;100.00;97371.72;1030337;28;20248;-71
2022/01/24 00:58:38;;;;;;;;;;;;;;;0.06;100.00;97368.19;1030389;28;19914;-69
2022/01/24 00:59:08;;;;;;;;;;;;;;;0.07;100.00;97372.41;1030386;28;20614;-70
2022/01/24 00:59:38;;;;;;;;;;;;;;;0.08;100.00;97378.38;1029797;28;19917;-70
2022/01/24 01:00:09;;;;;;;;;;;;;;;0.08;100.00;97373.19;1034863;28;19913;-70
2022/01/24 01:00:39;;;;;;;;;;;;;;;0.07;100.00;97367.25;1030797;28;19981;-71
2022/01/24 01:01:09;;;;;;;;;;;;;;;0.07;100.00;97372.41;1022648;28;19922;-70
2022/01/24 01:01:40;;;;;;;;;;;;;;;0.07;100.00;97372.41;1026644;28;19918;-70
2022/01/24 01:02:11;;;;;;;;;;;;;;;0.06;100.00;97365.59;1030919;28;19929;-70
2022/01/24 01:02:41;;;;;;;;;;;;;;;0.06;100.00;97365.59;1034606;28;19952;-70
2022/01/24 01:03:12;;;;;;;;;;;;;;;0.06;100.00;97363.03;1032229;28;19924;-70
2022/01/24 01:03:42;;;;;;;;;;;;;;;0.06;100.00;97364.78;1026797;28;19918;-71
2022/01/24 01:04:13;;;;;;;;;;;;;;;0.05;100.00;97361.41;1030722;28;19910;-70
2022/01/24 01:06:05;;;;;;;;;;;;;;;0.05;100.00;97356.25;1030551;28;19906;-70
2022/01/24 01:06:38;;;;;;;;;;;;;;;0.04;100.00;97354.66;1032439;28;19964;-71
2022/01/24 01:07:09;;;;;;;;;;;;;;;0.03;100.00;97355.59;1029554;28;20299;-70
2022/01/24 01:07:56;;;;;;;;;;;;;;;0.02;100.00;97353.97;1033814;28;19922;-71
2022/01/24 01:18:10;;;;;;;;;;;;;;;-0.40;100.00;97323.84;1031071;28;19914;-70
2022/01/24 01:18:40;;;;;;;;;;;;;;;-0.44;100.00;97327.66;1034373;28;19947;-71
2022/01/24 01:19:10;;;;;;;;;;;;;;;-0.48;100.00;97326.34;1038724;28;19920;-69
2022/01/24 01:19:40;;;;;;;;;;;;;;;-0.52;100.00;97325.84;1030375;28;19906;-72
2022/01/24 01:20:12;;;;;;;;;;;;;;;-0.55;100.00;97330.50;1028066;28;20388;-69
2022/01/24 01:21:25;;;;;;;;;;;;;;;-0.57;100.00;97329.84;1030821;28;19918;-70
2022/01/24 01:21:36;;;;;;;;;;;;;;;-0.58;100.00;97328.25;1025727;28;19970;-70
2022/01/24 01:22:06;;;;;;;;;;;;;;;-0.60;100.00;97333.56;1029814;28;19914;-70
2022/01/24 01:22:37;;;;;;;;;;;;;;;-0.63;100.00;97333.88;1026249;28;19910;-70
2022/01/24 01:23:07;;;;;;;;;;;;;;;-0.62;100.00;97335.47;1029188;28;19906;-70
2022/01/24 01:23:40;;;;;;;;;;;;;;;-0.65;100.00;97329.81;1026437;28;20423;-70
2022/01/24 01:24:11;;;;;;;;;;;;;;;-0.64;100.00;97337.38;1034912;28;19914;-69
2022/01/24 01:24:48;;;;;;;;;;;;;;;-0.67;100.00;97337.72;1030612;28;20276;-69
2022/01/24 01:25:18;;;;;;;;;;;;;;;-0.72;100.00;97329.63;1029846;28;19944;-70
2022/01/24 01:25:50;;;;;;;;;;;;;;;-0.74;100.00;97327.19;1032823;28;20660;-70
2022/01/24 01:27:01;;;;;;;;;;;;;;;-0.79;100.00;97336.34;1036083;28;19921;-70
2022/01/24 01:27:38;;;;;;;;;;;;;;;-0.82;100.00;97324.56;1038719;28;20424;-71
2022/01/24 01:28:08;;;;;;;;;;;;;;;-0.80;100.00;97327.81;1034373;28;19917;-70
2022/01/24 01:28:42;;;;;;;;;;;;;;;-0.81;100.00;97330.50;1035831;28;20338;-72
2022/01/24 01:29:18;;;;;;;;;;;;;;;-0.82;100.00;97334.06;1038706;28;20384;-70
2022/01/24 01:30:33;;;;;;;;;;;;;;;-0.89;100.00;97339.00;1040009;28;19964;-70
2022/01/24 01:31:09;;;;;;;;;;;;;;;-0.95;100.00;97330.09;1034502;28;19918;-71
2022/01/24 01:31:52;;;;;;;;;;;;;;;-1.00;100.00;97326.38;1034655;28;20314;-71
2022/01/24 01:33:20;;;;;;;;;;;;;;;-1.03;100.00;97329.25;1038149;28;20218;-72
2022/01/24 01:34:01;;;;;;;;;;;;;;;-1.09;100.00;97333.22;1040496;28;20051;-70
2022/01/24 01:35:57;;;;;;;;;;;;;;;-1.17;100.00;97329.78;1034268;28;19971;-72
2022/01/24 01:39:12;;;;;;;;;;;;;;;-1.26;100.00;97327.13;1022003;28;19961;-71
2022/01/24 01:40:21;;;;;;;;;;;;;;;-1.30;100.00;97335.31;1026156;28;20471;-70
2022/01/24 01:52:18;;;;;;;;;;;;;;;-1.39;100.00;97331.06;1030065;28;19910;-70
2022/01/24 01:55:16;;;;;;;;;;;;;;;-1.77;100.00;97330.38;1037266;28;19965;-71
2022/01/24 01:55:47;;;;;;;;;;;;;;;-1.78;100.00;97332.13;1035503;28;19909;-70
2022/01/24 01:56:17;;;;;;;;;;;;;;;-1.81;100.00;97334.19;1028854;28;19921;-69
2022/01/24 01:56:47;;;;;;;;;;;;;;;-1.82;100.00;97333.38;1035182;28;20381;-70
2022/01/24 01:57:19;;;;;;;;;;;;;;;-1.84;100.00;97327.59;1035031;28;19913;-71
2022/01/24 01:57:49;;;;;;;;;;;;;;;-1.86;100.00;97328.69;1035307;28;19909;-70
2022/01/24 01:58:20;;;;;;;;;;;;;;;-1.88;100.00;97330.56;1039150;28;20316;-71
2022/01/24 01:58:50;;;;;;;;;;;;;;;-1.88;100.00;97330.56;1031410;28;19953;-71
2022/01/24 01:59:20;;;;;;;;;;;;;;;-1.94;100.00;97325.06;1023168;29;20333;-70
2022/01/24 01:59:51;;;;;;;;;;;;;;;-1.92;100.00;97330.84;1021625;28;19926;-72
2022/01/24 02:00:21;;;;;;;;;;;;;;;-1.93;100.00;97326.69;1027426;28;19910;-70
2022/01/24 02:00:55;;;;;;;;;;;;;;;-1.94;100.00;97326.84;1027385;28;19914;-71
2022/01/24 02:01:25;;;;;;;;;;;;;;;-1.98;100.00;97328.88;1027156;28;20064;-71
2022/01/24 02:01:55;;;;;;;;;;;;;;;-1.97;100.00;97322.78;1023960;28;19922;-71
2022/01/24 02:02:26;;;;;;;;;;;;;;;-1.99;100.00;97331.59;1027848;28;19910;-71
2022/01/24 02:02:56;;;;;;;;;;;;;;;-2.03;100.00;97330.25;1026811;28;19921;-71
2022/01/24 02:03:27;;;;;;;;;;;;;;;-2.03;100.00;97325.13;1031126;28;19917;-71
2022/01/24 02:03:57;;;;;;;;;;;;;;;-1.97;100.00;97327.94;1027257;28;19915;-70
2022/01/24 02:04:27;;;;;;;;;;;;;;;-1.91;100.00;97326.53;1027320;28;19921;-69
2022/01/24 02:04:58;;;;;;;;;;;;;;;-1.88;100.00;97330.56;1027182;28;19953;-71
2022/01/24 02:05:28;;;;;;;;;;;;;;;-1.90;100.00;97328.16;1027349;28;20265;-70
2022/01/24 02:05:59;;;;;;;;;;;;;;;-1.92;100.00;97330.06;1031360;28;19912;-71
2022/01/24 02:06:29;;;;;;;;;;;;;;;-1.91;100.00;97334.25;1035411;28;19901;-71
2022/01/24 02:07:00;;;;;;;;;;;;;;;-1.90;100.00;97328.16;1039563;28;20534;-70
2022/01/24 02:07:31;;;;;;;;;;;;;;;-1.94;100.00;97326.84;1031331;28;19996;-70
2022/01/24 02:08:01;;;;;;;;;;;;;;;-1.96;100.00;97326.97;1031402;28;19921;-71
2022/01/24 02:08:32;;;;;;;;;;;;;;;-1.93;100.00;97326.69;1035028;28;19920;-70
2022/01/24 02:09:04;;;;;;;;;;;;;;;-1.97;100.00;97325.34;1031349;28;19985;-71
2022/01/24 02:09:35;;;;;;;;;;;;;;;-1.96;100.00;97323.59;1027688;28;19914;-71
2022/01/24 02:10:05;;;;;;;;;;;;;;;-1.94;100.00;97317.34;1033639;28;19910;-71
2022/01/24 02:10:38;;;;;;;;;;;;;;;-1.94;100.00;97322.50;1035505;28;19941;-71
2022/01/24 02:11:11;;;;;;;;;;;;;;;-1.95;100.00;97320.03;1035873;28;20511;-71
2022/01/24 02:11:41;;;;;;;;;;;;;;;-1.94;100.00;97319.13;1036461;28;19962;-71
2022/01/24 02:12:11;;;;;;;;;;;;;;;-1.94;100.00;97321.69;1043618;28;19967;-70
2022/01/24 02:12:42;;;;;;;;;;;;;;;-1.97;100.00;97319.41;1043209;28;19979;-70
2022/01/24 02:13:12;;;;;;;;;;;;;;;-1.91;100.00;97321.41;1043501;28;19916;-69
2022/01/24 02:13:45;;;;;;;;;;;;;;;-1.87;100.00;97312.44;1047915;28;19912;-70
2022/01/24 02:14:18;;;;;;;;;;;;;;;-1.87;100.00;97312.44;1043402;28;20052;-70
2022/01/24 02:14:55;;;;;;;;;;;;;;;-1.87;100.00;97314.19;1043648;28;20031;-70
2022/01/24 02:15:37;;;;;;;;;;;;;;;-1.91;100.00;97311.13;1039509;28;19936;-70
2022/01/24 02:16:20;;;;;;;;;;;;;;;-1.94;100.00;97307.06;1034145;28;19917;-70
2022/01/24 02:16:59;;;;;;;;;;;;;;;-1.98;100.00;97310.06;1023207;28;19917;-69
2022/01/24 02:17:43;;;;;;;;;;;;;;;-1.98;100.00;97310.88;1027491;28;19981;-70
2022/01/24 02:19:37;;;;;;;;;;;;;;;-2.00;100.00;97301.69;1027073;28;20008;-69
2022/01/24 02:20:39;;;;;;;;;;;;;;;-1.95;100.00;97304.63;1025864;28;19940;-70
2022/01/24 02:21:41;;;;;;;;;;;;;;;-2.01;100.00;97306.03;1026346;28;19938;-70
2022/01/24 02:22:41;;;;;;;;;;;;;;;-1.98;100.00;97302.34;1034446;28;19918;-70
2022/01/24 02:23:31;;;;;;;;;;;;;;;-1.91;100.00;97299.06;1034835;28;20020;-70
2022/01/24 02:24:02;;;;;;;;;;;;;;;-1.92;100.00;97300.00;1035432;28;20326;-70
2022/01/24 02:24:41;;;;;;;;;;;;;;;-1.88;100.00;97302.28;1035229;28;19917;-70
2022/01/24 02:25:24;;;;;;;;;;;;;;;-1.93;100.00;97297.56;1036293;28;20369;-70
2022/01/24 02:25:55;;;;;;;;;;;;;;;-1.95;100.00;97304.63;1031414;28;20029;-70
2022/01/24 02:26:25;;;;;;;;;;;;;;;-1.96;100.00;97301.25;1030149;28;19914;-70
2022/01/24 02:26:56;;;;;;;;;;;;;;;-1.96;100.00;97300.44;1033161;28;20398;-70
2022/01/24 02:27:32;;;;;;;;;;;;;;;-2.00;100.00;97301.69;1037407;28;19913;-70
2022/01/24 02:28:04;;;;;;;;;;;;;;;-2.03;100.00;97299.41;1040371;28;20390;-70
2022/01/24 02:28:55;;;;;;;;;;;;;;;-2.06;100.00;97302.25;1035237;28;19914;-71
2022/01/24 02:30:49;;;;;;;;;;;;;;;-2.05;100.00;97303.88;1018424;28;19974;-71
2022/01/24 02:31:38;;;;;;;;;;;;;;;-2.10;100.00;97301.75;1030987;28;20363;-71
2022/01/24 02:32:08;;;;;;;;;;;;;;;-2.13;100.00;97302.81;1047924;28;19909;-70
2022/01/24 02:32:39;;;;;;;;;;;;;;;-2.16;100.00;97297.97;1038826;28;19975;-70
2022/01/24 02:33:10;;;;;;;;;;;;;;;-2.18;100.00;97299.06;1035100;28;19910;-69
2022/01/24 02:33:44;;;;;;;;;;;;;;;-2.19;100.00;97295.69;1031070;28;19921;-70
2022/01/24 02:34:50;;;;;;;;;;;;;;;-2.18;100.00;97297.31;1027766;28;20344;-70
2022/01/24 02:35:20;;;;;;;;;;;;;;;-2.21;100.00;97295.03;1024279;28;19907;-70
2022/01/24 02:35:51;;;;;;;;;;;;;;;-2.24;100.00;97300.47;1024560;28;20006;-70
2022/01/24 02:36:22;;;;;;;;;;;;;;;-2.24;100.00;97297.91;1027094;28;19910;-70
2022/01/24 02:36:53;;;;;;;;;;;;;;;-2.27;100.00;97299.94;1019221;29;19922;-70
2022/01/24 02:37:24;;;;;;;;;;;;;;;-2.28;100.00;97296.56;1023014;29;20376;-70
2022/01/24 02:37:56;;;;;;;;;;;;;;;-2.30;100.00;97298.47;1030359;28;19914;-70
2022/01/24 02:39:22;;;;;;;;;;;;;;;-2.33;100.00;97295.38;1031395;28;20419;-70
2022/01/24 02:40:01;;;;;;;;;;;;;;;-2.37;100.00;97289.72;1031340;28;19941;-71
2022/01/24 02:40:31;;;;;;;;;;;;;;;-2.43;100.00;97288.50;1031790;28;19941;-71
2022/01/24 02:48:24;;;;;;;;;;;;;;;-2.47;100.00;97291.50;1040402;28;19936;-72
2022/01/24 02:48:55;;;;;;;;;;;;;;;-2.47;100.00;97289.75;1032415;28;19917;-71
2022/01/24 02:49:25;;;;;;;;;;;;;;;-2.44;100.00;97293.81;1032960;28;19932;-71
2022/01/24 02:49:55;;;;;;;;;;;;;;;-2.48;100.00;97292.44;1035330;28;19920;-71
2022/01/24 02:50:51;;;;;;;;;;;;;;;-2.51;100.00;97285.84;1031863;28;19914;-71
2022/01/24 02:52:17;;;;;;;;;;;;;;;-2.53;100.00;97294.66;1026619;28;19922;-70
2022/01/24 02:52:47;;;;;;;;;;;;;;;-2.56;100.00;97288.03;1042107;28;20008;-70
2022/01/24 02:53:18;;;;;;;;;;;;;;;-2.55;100.00;97291.41;1040431;28;19936;-70
2022/01/24 02:53:48;;;;;;;;;;;;;;;-2.54;100.00;97288.69;1040172;28;20339;-71
2022/01/24 02:54:27;;;;;;;;;;;;;;;-2.55;100.00;97289.63;1044094;28;19928;-70
2022/01/24 02:54:57;;;;;;;;;;;;;;;-2.56;100.00;97287.22;1043084;28;20377;-71
2022/01/24 02:55:28;;;;;;;;;;;;;;;-2.58;100.00;97283.97;1039983;28;19937;-71
2022/01/24 02:55:58;;;;;;;;;;;;;;;-2.57;100.00;97283.03;1036228;28;19917;-71
2022/01/24 02:56:28;;;;;;;;;;;;;;;-2.55;100.00;97281.13;1036009;28;20012;-71
2022/01/24 02:56:59;;;;;;;;;;;;;;;-2.54;100.00;97285.31;1028009;28;20331;-70
2022/01/24 02:57:29;;;;;;;;;;;;;;;-2.55;100.00;97278.56;1032067;28;19924;-71
2022/01/24 02:58:00;;;;;;;;;;;;;;;-2.54;100.00;97288.69;1029080;28;19982;-70
2022/01/24 02:58:30;;;;;;;;;;;;;;;-2.59;100.00;97288.31;1036299;28;19918;-71
2022/01/24 02:59:00;;;;;;;;;;;;;;;-2.59;100.00;97277.22;1040260;28;20310;-70
2022/01/24 02:59:31;;;;;;;;;;;;;;;-2.62;100.00;97286.84;1040192;28;19964;-70
2022/01/24 03:00:01;;;;;;;;;;;;;;;-2.58;100.00;97281.41;1034612;28;19920;-70
2022/01/24 03:00:31;;;;;;;;;;;;;;;-2.56;100.00;97279.50;1028799;28;19922;-70
2022/01/24 03:01:06;;;;;;;;;;;;;;;-2.57;100.00;97278.69;1024303;28;19926;-71
2022/01/24 03:01:39;;;;;;;;;;;;;;;-2.54;100.00;97282.75;1027415;28;19926;-70
2022/01/24 03:02:09;;;;;;;;;;;;;;;-2.50;100.00;97281.53;1023840;28;19919;-70
2022/01/24 03:02:40;;;;;;;;;;;;;;;-2.48;100.00;97283.00;1022091;28;20357;-70
2022/01/24 03:03:10;;;;;;;;;;;;;;;-2.50;100.00;97284.09;1023055;28;20787;-71
2022/01/24 03:03:41;;;;;;;;;;;;;;;-2.47;100.00;97279.47;1022923;28;19923;-71
2022/01/24 03:04:11;;;;;;;;;;;;;;;-2.44;100.00;97283.53;1027070;28;19918;-69
2022/01/24 03:04:41;;;;;;;;;;;;;;;-2.44;100.00;97286.91;1027022;28;20700;-73
2022/01/24 03:05:11;;;;;;;;;;;;;;;-2.47;100.00;97286.38;1027144;28;19929;-70
2022/01/24 03:05:42;;;;;;;;;;;;;;;-2.46;100.00;97285.41;1031143;28;19932;-71
2022/01/24 03:06:12;;;;;;;;;;;;;;;-2.45;100.00;97285.28;1026935;28;20029;-71
2022/01/24 03:06:42;;;;;;;;;;;;;;;-2.44;100.00;97284.31;1026848;28;20363;-71
2022/01/24 03:07:13;;;;;;;;;;;;;;;-2.47;100.00;97278.66;1027160;28;19946;-70
2022/01/24 03:07:43;;;;;;;;;;;;;;;-2.51;100.00;97285.84;1023091;29;20463;-70
2022/01/24 03:08:14;;;;;;;;;;;;;;;-2.52;100.00;97280.84;1026792;28;19989;-70
2022/01/24 03:08:45;;;;;;;;;;;;;;;-2.56;100.00;97280.31;1035246;28;19921;-71
2022/01/24 03:09:15;;;;;;;;;;;;;;;-2.79;100.00;97246.47;1031304;28;20131;-71
2022/01/24 03:09:45;;;;;;;;;;;;;;;-2.57;100.00;97283.84;1026996;28;19937;-71
2022/01/24 03:10:26;;;;;;;;;;;;;;;-2.61;100.00;97275.63;1030659;28;19929;-71
2022/01/24 03:10:58;;;;;;;;;;;;;;;-2.62;100.00;97281.72;1036296;28;20302;-70
2022/01/24 03:11:49;;;;;;;;;;;;;;;-2.64;100.00;97278.47;1032607;28;20446;-70
2022/01/24 03:12:39;;;;;;;;;;;;;;;-2.66;100.00;97275.22;1034856;28;19953;-71
2022/01/24 03:13:30;;;;;;;;;;;;;;;-2.66;100.00;97280.34;1041762;28;19951;-71
2022/01/24 03:14:00;;;;;;;;;;;;;;;-2.60;100.00;97279.00;1039101;28;19917;-71
2022/01/24 03:14:31;;;;;;;;;;;;;;;-2.61;100.00;97278.19;1034987;28;20399;-71
2022/01/24 03:15:03;;;;;;;;;;;;;;;-2.64;100.00;97272.53;1026843;28;20316;-72
2022/01/24 03:15:34;;;;;;;;;;;;;;;-2.65;100.00;97276.03;1031218;28;20008;-72
2022/01/24 03:16:04;;;;;;;;;;;;;;;-2.67;100.00;97283.88;1035468;28;20391;-71
2022/01/24 03:16:35;;;;;;;;;;;;;;;-2.70;100.00;97279.03;1034976;28;19913;-71
2022/01/24 03:17:05;;;;;;;;;;;;;;;-2.72;100.00;97273.19;1027313;28;19914;-71
2022/01/24 03:17:36;;;;;;;;;;;;;;;-2.72;100.00;97273.19;1027081;28;19918;-71
2022/01/24 03:18:06;;;;;;;;;;;;;;;-2.71;100.00;97281.75;1031063;28;19910;-71
2022/01/24 03:18:36;;;;;;;;;;;;;;;-2.73;100.00;97274.16;1030813;28;19990;-71
2022/01/24 03:19:07;;;;;;;;;;;;;;;-2.73;100.00;97266.47;1027146;28;19914;-71
2022/01/24 03:19:37;;;;;;;;;;;;;;;-2.77;100.00;97277.97;1026958;28;19914;-70
2022/01/24 03:20:07;;;;;;;;;;;;;;;-2.80;100.00;97273.13;1035063;28;19917;-71
2022/01/24 03:20:38;;;;;;;;;;;;;;;-2.85;100.00;97270.97;1030952;28;19918;-71
2022/01/24 03:21:08;;;;;;;;;;;;;;;-3.09;100.00;97243.19;1031005;28;19942;-71
2022/01/24 03:21:38;;;;;;;;;;;;;;;-2.87;100.00;97261.78;1035054;28;19932;-71
2022/01/24 03:22:11;;;;;;;;;;;;;;;-2.91;100.00;97270.72;1030725;28;20299;-71
2022/01/24 03:22:41;;;;;;;;;;;;;;;-2.94;100.00;97271.00;1030898;28;19964;-71
2022/01/24 03:23:12;;;;;;;;;;;;;;;-2.96;100.00;97268.56;1034841;28;20338;-71
2022/01/24 03:23:42;;;;;;;;;;;;;;;-2.99;100.00;97265.47;1030754;28;19918;-70
2022/01/24 03:24:13;;;;;;;;;;;;;;;-2.99;100.00;97273.16;1031063;28;19976;-70
2022/01/24 03:24:45;;;;;;;;;;;;;;;-2.96;100.00;97260.06;1026806;28;19927;-70
2022/01/24 03:25:15;;;;;;;;;;;;;;;-2.99;100.00;97265.47;1024933;28;19919;-71
2022/01/24 03:25:46;;;;;;;;;;;;;;;-3.03;100.00;97259.78;1035181;28;19968;-70
2022/01/24 03:26:16;;;;;;;;;;;;;;;-3.04;100.00;97270.22;1031093;28;19909;-70
2022/01/24 03:26:47;;;;;;;;;;;;;;;-3.02;100.00;97266.53;1035031;28;19918;-70
2022/01/24 03:27:17;;;;;;;;;;;;;;;-3.08;100.00;97262.78;1031066;28;19918;-70
2022/01/24 03:27:47;;;;;;;;;;;;;;;-3.09;100.00;97268.84;1031193;28;20322;-70
2022/01/24 03:28:18;;;;;;;;;;;;;;;-3.11;100.00;97265.63;1034961;28;19920;-70
2022/01/24 03:28:48;;;;;;;;;;;;;;;-3.04;100.00;97265.88;1037760;28;19988;-71
2022/01/24 03:29:18;;;;;;;;;;;;;;;-2.98;100.00;97264.53;1034962;28;20665;-70
2022/01/24 03:29:49;;;;;;;;;;;;;;;-3.06;100.00;97266.97;1031093;28;19914;-71
2022/01/24 03:30:19;;;;;;;;;;;;;;;-3.09;100.00;97262.91;1030982;28;19918;-71
2022/01/24 03:30:49;;;;;;;;;;;;;;;-3.13;100.00;97264.94;1022715;28;20017;-70
2022/01/24 03:31:19;;;;;;;;;;;;;;;-3.10;100.00;97263.88;1027051;28;19914;-70
2022/01/24 03:31:50;;;;;;;;;;;;;;;-3.13;100.00;97262.38;1031137;28;19913;-71
2022/01/24 03:32:20;;;;;;;;;;;;;;;-3.14;100.00;97270.25;1030859;28;19918;-69
2022/01/24 03:32:51;;;;;;;;;;;;;;;-3.10;100.00;97267.25;1035117;28;19914;-70
2022/01/24 03:33:21;;;;;;;;;;;;;;;-3.09;100.00;97263.72;1035729;28;19914;-70
2022/01/24 03:33:51;;;;;;;;;;;;;;;-3.12;100.00;97268.31;1035505;28;19960;-70
2022/01/24 03:34:22;;;;;;;;;;;;;;;-3.16;100.00;97270.38;1037775;28;19924;-70
2022/01/24 03:34:52;;;;;;;;;;;;;;;-3.15;100.00;97260.94;1039901;28;19917;-70
2022/01/24 03:35:22;;;;;;;;;;;;;;;-3.15;100.00;97259.16;1031724;28;19917;-70
2022/01/24 03:35:53;;;;;;;;;;;;;;;-3.15;100.00;97268.63;1035377;28;19917;-69
2022/01/24 03:36:23;;;;;;;;;;;;;;;-3.11;100.00;97263.06;1035028;28;19981;-72
2022/01/24 03:36:53;;;;;;;;;;;;;;;-3.11;100.00;97265.63;1027555;28;19945;-70
2022/01/24 03:37:24;;;;;;;;;;;;;;;-3.08;100.00;97262.78;1035314;28;20442;-70
2022/01/24 03:37:54;;;;;;;;;;;;;;;-3.01;100.00;97262.25;1035285;28;20629;-71
2022/01/24 03:38:24;;;;;;;;;;;;;;;-3.05;100.00;97263.44;1035506;28;19916;-70
2022/01/24 03:38:55;;;;;;;;;;;;;;;-3.10;100.00;97259.53;1023213;28;19918;-70
2022/01/24 03:39:25;;;;;;;;;;;;;;;-3.12;100.00;97263.19;1020683;28;19915;-71
2022/01/24 03:39:55;;;;;;;;;;;;;;;-3.10;100.00;97269.81;1027157;28;19918;-71
2022/01/24 03:40:25;;;;;;;;;;;;;;;-3.11;100.00;97270.78;1035205;28;19918;-70
2022/01/24 03:40:56;;;;;;;;;;;;;;;-3.05;100.00;97258.31;1034846;28;19968;-70
2022/01/24 03:41:26;;;;;;;;;;;;;;;-3.02;100.00;97268.31;1035049;28;19925;-70
2022/01/24 03:41:56;;;;;;;;;;;;;;;-3.05;100.00;97268.59;1030814;28;19996;-71
2022/01/24 03:42:27;;;;;;;;;;;;;;;-3.05;100.00;97264.28;1034933;28;20379;-70
2022/01/24 03:42:57;;;;;;;;;;;;;;;-3.11;100.00;97265.63;1038414;28;19917;-70
2022/01/24 03:43:27;;;;;;;;;;;;;;;-3.15;100.00;97269.44;1026947;28;19913;-69
2022/01/24 03:44:03;;;;;;;;;;;;;;;-3.16;100.00;97262.66;1030806;28;19909;-70
2022/01/24 03:44:33;;;;;;;;;;;;;;;-3.19;100.00;97268.06;1031543;28;19918;-70
2022/01/24 03:45:06;;;;;;;;;;;;;;;-3.19;100.00;97267.25;1032375;28;19917;-70
2022/01/24 03:45:41;;;;;;;;;;;;;;;-3.20;100.00;97263.09;1031812;28;20427;-70
2022/01/24 03:46:24;;;;;;;;;;;;;;;-3.23;100.00;97260.78;1030762;28;20787;-70
2022/01/24 03:48:22;;;;;;;;;;;;;;;-3.22;100.00;97259.84;1030219;28;19941;-71
2022/01/24 03:49:45;;;;;;;;;;;;;;;-3.23;100.00;97255.66;1031106;28;20419;-70
2022/01/24 03:49:46;;;;;;;;;;;;;;;-3.20;100.00;97255.38;1033752;28;19913;-70
2022/01/24 03:50:19;;;;;;;;;;;;;;;-3.18;100.00;97254.31;1034009;28;20395;-71
2022/01/24 03:50:50;;;;;;;;;;;;;;;-3.17;100.00;97250.78;1031089;28;19918;-72
2022/01/24 03:51:20;;;;;;;;;;;;;;;-3.13;100.00;97257.25;1031628;28;19933;-70
2022/01/24 03:51:51;;;;;;;;;;;;;;;-3.14;100.00;97255.66;1035419;28;20008;-71
2022/01/24 03:52:21;;;;;;;;;;;;;;;-3.12;100.00;97251.19;1039555;28;19987;-71
2022/01/24 03:52:51;;;;;;;;;;;;;;;-3.06;100.00;97243.88;1042290;28;19916;-70
2022/01/24 03:53:22;;;;;;;;;;;;;;;-2.99;100.00;97247.50;1039037;28;20373;-71
2022/01/24 03:53:52;;;;;;;;;;;;;;;-2.99;100.00;97252.63;1034829;28;20449;-70
2022/01/24 03:54:22;;;;;;;;;;;;;;;-3.02;100.00;97240.88;1030817;28;20367;-70